sensor_id;sensor_type;location;lat;lon;timestamp;P1;durP1;ratioP1;P2;durP2;ratioP2
26337;SDS011;14050;50.950;4.460;2023-06-04T00:04:52;4.13;;;1.33;;
26337;SDS011;14050;50.950;4.460;2023-06-04T00:09:53;5.78;;;1.50;;
26337;SDS011;14050;50.950;4.460;2023-06-04T00:14:55;4.28;;;1.30;;
26337;SDS011;14050;50.950;4.460;2023-06-04T00:19:55;6.43;;;1.50;;
26337;SDS011;14050;50.950;4.460;2023-06-04T00:24:55;3.40;;;1.13;;
26337;SDS011;14050;50.950;4.460;2023-06-04T00:29:56;7.60;;;1.60;;
26337;SDS011;14050;50.950;4.460;2023-06-04T00:34:56;4.65;;;1.58;;
26337;SDS011;14050;50.950;4.460;2023-06-04T00:40:00;7.93;;;1.80;;
26337;SDS011;14050;50.950;4.460;2023-06-04T00:45:00;4.32;;;1.70;;
26337;SDS011;14050;50.950;4.460;2023-06-04T00:50:01;5.65;;;1.77;;
26337;SDS011;14050;50.950;4.460;2023-06-04T00:55:02;4.13;;;1.58;;
26337;SDS011;14050;50.950;4.460;2023-06-04T01:00:03;10.48;;;1.90;;
26337;SDS011;14050;50.950;4.460;2023-06-04T01:05:12;5.30;;;2.20;;
26337;SDS011;14050;50.950;4.460;2023-06-04T01:10:14;2.15;;;1.35;;
26337;SDS011;14050;50.950;4.460;2023-06-04T01:15:14;7.25;;;2.10;;
26337;SDS011;14050;50.950;4.460;2023-06-04T01:25:20;4.53;;;2.03;;
26337;SDS011;14050;50.950;4.460;2023-06-04T01:30:39;8.43;;;2.35;;
26337;SDS011;14050;50.950;4.460;2023-06-04T01:35:43;9.18;;;1.83;;
26337;SDS011;14050;50.950;4.460;2023-06-04T01:40:43;6.05;;;1.92;;
26337;SDS011;14050;50.950;4.460;2023-06-04T01:45:44;3.85;;;1.98;;
26337;SDS011;14050;50.950;4.460;2023-06-04T01:50:44;5.45;;;1.85;;
26337;SDS011;14050;50.950;4.460;2023-06-04T01:55:45;6.70;;;2.20;;
26337;SDS011;14050;50.950;4.460;2023-06-04T02:00:45;10.07;;;2.20;;
26337;SDS011;14050;50.950;4.460;2023-06-04T02:05:46;5.13;;;2.20;;
26337;SDS011;14050;50.950;4.460;2023-06-04T02:10:47;5.80;;;2.35;;
26337;SDS011;14050;50.950;4.460;2023-06-04T02:15:47;6.05;;;2.10;;
26337;SDS011;14050;50.950;4.460;2023-06-04T02:20:49;6.75;;;1.95;;
26337;SDS011;14050;50.950;4.460;2023-06-04T02:25:49;6.32;;;1.98;;
26337;SDS011;14050;50.950;4.460;2023-06-04T02:30:50;7.30;;;2.10;;
26337;SDS011;14050;50.950;4.460;2023-06-04T02:35:50;7.50;;;2.30;;
26337;SDS011;14050;50.950;4.460;2023-06-04T02:40:51;6.63;;;2.38;;
26337;SDS011;14050;50.950;4.460;2023-06-04T02:45:51;9.40;;;2.37;;
26337;SDS011;14050;50.950;4.460;2023-06-04T02:50:51;5.40;;;2.20;;
26337;SDS011;14050;50.950;4.460;2023-06-04T02:55:52;11.18;;;2.28;;
26337;SDS011;14050;50.950;4.460;2023-06-04T03:00:53;7.45;;;2.65;;
26337;SDS011;14050;50.950;4.460;2023-06-04T03:05:53;13.18;;;2.20;;
26337;SDS011;14050;50.950;4.460;2023-06-04T03:10:54;6.18;;;2.25;;
26337;SDS011;14050;50.950;4.460;2023-06-04T03:15:54;6.28;;;2.33;;
26337;SDS011;14050;50.950;4.460;2023-06-04T03:20:55;7.93;;;2.25;;
26337;SDS011;14050;50.950;4.460;2023-06-04T03:25:55;7.80;;;2.65;;
26337;SDS011;14050;50.950;4.460;2023-06-04T03:30:56;6.03;;;2.50;;
26337;SDS011;14050;50.950;4.460;2023-06-04T03:35:56;4.60;;;2.53;;
26337;SDS011;14050;50.950;4.460;2023-06-04T03:40:59;7.90;;;2.78;;
26337;SDS011;14050;50.950;4.460;2023-06-04T03:46:00;6.00;;;2.60;;
26337;SDS011;14050;50.950;4.460;2023-06-04T03:51:00;7.87;;;2.30;;
26337;SDS011;14050;50.950;4.460;2023-06-04T03:56:02;6.10;;;2.40;;
26337;SDS011;14050;50.950;4.460;2023-06-04T04:01:02;7.60;;;2.70;;
26337;SDS011;14050;50.950;4.460;2023-06-04T04:06:04;4.45;;;2.60;;
26337;SDS011;14050;50.950;4.460;2023-06-04T04:11:05;3.03;;;1.90;;
26337;SDS011;14050;50.950;4.460;2023-06-04T04:16:05;6.30;;;2.70;;
26337;SDS011;14050;50.950;4.460;2023-06-04T04:21:06;10.73;;;2.60;;
26337;SDS011;14050;50.950;4.460;2023-06-04T04:26:08;4.15;;;2.58;;
26337;SDS011;14050;50.950;4.460;2023-06-04T04:31:08;8.68;;;2.75;;
26337;SDS011;14050;50.950;4.460;2023-06-04T04:36:09;7.00;;;2.40;;
26337;SDS011;14050;50.950;4.460;2023-06-04T04:41:12;8.30;;;2.45;;
26337;SDS011;14050;50.950;4.460;2023-06-04T04:46:13;5.70;;;2.83;;
26337;SDS011;14050;50.950;4.460;2023-06-04T04:51:13;6.53;;;2.57;;
26337;SDS011;14050;50.950;4.460;2023-06-04T04:56:14;6.23;;;2.67;;
26337;SDS011;14050;50.950;4.460;2023-06-04T05:01:14;6.25;;;2.70;;
26337;SDS011;14050;50.950;4.460;2023-06-04T05:06:14;7.07;;;2.50;;
26337;SDS011;14050;50.950;4.460;2023-06-04T05:11:15;6.20;;;2.80;;
26337;SDS011;14050;50.950;4.460;2023-06-04T05:16:15;5.95;;;2.70;;
26337;SDS011;14050;50.950;4.460;2023-06-04T05:21:16;10.70;;;2.83;;
26337;SDS011;14050;50.950;4.460;2023-06-04T05:26:17;7.43;;;2.85;;
26337;SDS011;14050;50.950;4.460;2023-06-04T05:31:18;8.30;;;3.15;;
26337;SDS011;14050;50.950;4.460;2023-06-04T05:36:19;5.38;;;2.80;;
26337;SDS011;14050;50.950;4.460;2023-06-04T05:41:19;8.02;;;2.80;;
26337;SDS011;14050;50.950;4.460;2023-06-04T05:46:23;6.45;;;3.10;;
26337;SDS011;14050;50.950;4.460;2023-06-04T05:51:24;8.40;;;2.90;;
26337;SDS011;14050;50.950;4.460;2023-06-04T05:56:24;7.05;;;3.03;;
26337;SDS011;14050;50.950;4.460;2023-06-04T06:01:26;7.00;;;3.53;;
26337;SDS011;14050;50.950;4.460;2023-06-04T06:06:26;6.10;;;3.00;;
26337;SDS011;14050;50.950;4.460;2023-06-04T06:11:28;11.52;;;2.60;;
26337;SDS011;14050;50.950;4.460;2023-06-04T06:16:28;5.67;;;2.90;;
26337;SDS011;14050;50.950;4.460;2023-06-04T06:21:30;15.50;;;2.53;;
26337;SDS011;14050;50.950;4.460;2023-06-04T06:26:30;5.47;;;3.00;;
26337;SDS011;14050;50.950;4.460;2023-06-04T06:31:32;8.77;;;2.80;;
26337;SDS011;14050;50.950;4.460;2023-06-04T06:36:32;6.15;;;2.50;;
26337;SDS011;14050;50.950;4.460;2023-06-04T06:41:34;5.97;;;2.58;;
26337;SDS011;14050;50.950;4.460;2023-06-04T06:46:34;6.85;;;2.85;;
26337;SDS011;14050;50.950;4.460;2023-06-04T06:51:35;9.40;;;2.47;;
26337;SDS011;14050;50.950;4.460;2023-06-04T06:56:35;3.60;;;2.42;;
26337;SDS011;14050;50.950;4.460;2023-06-04T07:01:36;10.57;;;2.33;;
26337;SDS011;14050;50.950;4.460;2023-06-04T07:06:36;8.40;;;2.53;;
26337;SDS011;14050;50.950;4.460;2023-06-04T07:11:37;11.75;;;2.50;;
26337;SDS011;14050;50.950;4.460;2023-06-04T07:16:37;6.57;;;2.60;;
26337;SDS011;14050;50.950;4.460;2023-06-04T07:21:37;8.37;;;2.17;;
26337;SDS011;14050;50.950;4.460;2023-06-04T07:26:38;4.40;;;2.15;;
26337;SDS011;14050;50.950;4.460;2023-06-04T07:31:40;4.90;;;2.43;;
26337;SDS011;14050;50.950;4.460;2023-06-04T07:36:41;5.30;;;1.85;;
26337;SDS011;14050;50.950;4.460;2023-06-04T07:41:41;7.30;;;2.10;;
26337;SDS011;14050;50.950;4.460;2023-06-04T07:46:41;5.20;;;2.07;;
26337;SDS011;14050;50.950;4.460;2023-06-04T07:51:42;3.13;;;2.13;;
26337;SDS011;14050;50.950;4.460;2023-06-04T07:56:42;3.23;;;1.50;;
26337;SDS011;14050;50.950;4.460;2023-06-04T08:01:43;4.60;;;2.00;;
26337;SDS011;14050;50.950;4.460;2023-06-04T08:06:44;6.60;;;2.03;;
26337;SDS011;14050;50.950;4.460;2023-06-04T08:11:44;5.10;;;1.58;;
26337;SDS011;14050;50.950;4.460;2023-06-04T08:16:45;4.25;;;1.45;;
26337;SDS011;14050;50.950;4.460;2023-06-04T08:21:45;13.15;;;1.73;;
26337;SDS011;14050;50.950;4.460;2023-06-04T08:26:47;11.38;;;1.80;;
26337;SDS011;14050;50.950;4.460;2023-06-04T08:31:48;5.85;;;1.73;;
26337;SDS011;14050;50.950;4.460;2023-06-04T08:36:48;3.58;;;1.55;;
26337;SDS011;14050;50.950;4.460;2023-06-04T08:41:50;2.78;;;1.50;;
26337;SDS011;14050;50.950;4.460;2023-06-04T08:46:51;3.78;;;1.42;;
26337;SDS011;14050;50.950;4.460;2023-06-04T08:51:55;9.05;;;1.60;;
26337;SDS011;14050;50.950;4.460;2023-06-04T08:56:56;4.90;;;1.40;;
26337;SDS011;14050;50.950;4.460;2023-06-04T09:01:58;11.45;;;1.40;;
26337;SDS011;14050;50.950;4.460;2023-06-04T09:07:01;4.55;;;1.38;;
26337;SDS011;14050;50.950;4.460;2023-06-04T09:12:02;12.50;;;1.98;;
26337;SDS011;14050;50.950;4.460;2023-06-04T09:17:04;4.78;;;1.73;;
26337;SDS011;14050;50.950;4.460;2023-06-04T09:22:05;4.20;;;1.52;;
26337;SDS011;14050;50.950;4.460;2023-06-04T09:27:09;10.20;;;1.65;;
26337;SDS011;14050;50.950;4.460;2023-06-04T09:32:11;6.07;;;1.65;;
26337;SDS011;14050;50.950;4.460;2023-06-04T09:37:15;4.53;;;1.30;;
26337;SDS011;14050;50.950;4.460;2023-06-04T09:42:17;4.80;;;1.20;;
26337;SDS011;14050;50.950;4.460;2023-06-04T09:47:17;3.43;;;1.30;;
26337;SDS011;14050;50.950;4.460;2023-06-04T09:52:18;10.60;;;1.60;;
26337;SDS011;14050;50.950;4.460;2023-06-04T09:57:20;3.70;;;1.40;;
26337;SDS011;14050;50.950;4.460;2023-06-04T10:02:21;12.32;;;1.60;;
26337;SDS011;14050;50.950;4.460;2023-06-04T10:07:22;5.30;;;1.10;;
26337;SDS011;14050;50.950;4.460;2023-06-04T10:12:25;8.60;;;1.38;;
26337;SDS011;14050;50.950;4.460;2023-06-04T10:17:27;5.25;;;2.00;;
26337;SDS011;14050;50.950;4.460;2023-06-04T10:22:29;10.07;;;1.60;;
26337;SDS011;14050;50.950;4.460;2023-06-04T10:27:30;9.25;;;2.10;;
26337;SDS011;14050;50.950;4.460;2023-06-04T10:32:31;8.15;;;1.45;;
26337;SDS011;14050;50.950;4.460;2023-06-04T10:37:32;2.35;;;1.40;;
26337;SDS011;14050;50.950;4.460;2023-06-04T10:42:40;2.47;;;1.20;;
26337;SDS011;14050;50.950;4.460;2023-06-04T10:47:41;7.70;;;1.63;;
26337;SDS011;14050;50.950;4.460;2023-06-04T10:52:52;2.42;;;1.00;;
26337;SDS011;14050;50.950;4.460;2023-06-04T11:02:56;7.03;;;1.40;;
26337;SDS011;14050;50.950;4.460;2023-06-04T11:07:56;4.50;;;1.38;;
26337;SDS011;14050;50.950;4.460;2023-06-04T11:12:57;3.30;;;1.20;;
26337;SDS011;14050;50.950;4.460;2023-06-04T11:17:57;9.90;;;1.67;;
26337;SDS011;14050;50.950;4.460;2023-06-04T11:23:01;3.50;;;1.23;;
26337;SDS011;14050;50.950;4.460;2023-06-04T11:28:03;9.10;;;1.40;;
26337;SDS011;14050;50.950;4.460;2023-06-04T11:33:04;4.07;;;1.30;;
26337;SDS011;14050;50.950;4.460;2023-06-04T11:38:04;2.50;;;1.35;;
26337;SDS011;14050;50.950;4.460;2023-06-04T11:43:05;6.65;;;1.20;;
26337;SDS011;14050;50.950;4.460;2023-06-04T11:48:06;6.57;;;1.25;;
26337;SDS011;14050;50.950;4.460;2023-06-04T11:53:06;4.32;;;1.30;;
26337;SDS011;14050;50.950;4.460;2023-06-04T11:58:07;6.43;;;1.23;;
26337;SDS011;14050;50.950;4.460;2023-06-04T12:03:08;4.18;;;1.15;;
26337;SDS011;14050;50.950;4.460;2023-06-04T12:08:09;8.60;;;1.17;;
26337;SDS011;14050;50.950;4.460;2023-06-04T12:13:10;3.47;;;1.40;;
26337;SDS011;14050;50.950;4.460;2023-06-04T12:18:11;3.92;;;1.50;;
26337;SDS011;14050;50.950;4.460;2023-06-04T12:23:19;4.45;;;1.70;;
26337;SDS011;14050;50.950;4.460;2023-06-04T12:28:19;5.35;;;1.38;;
26337;SDS011;14050;50.950;4.460;2023-06-04T12:33:20;8.30;;;1.30;;
26337;SDS011;14050;50.950;4.460;2023-06-04T12:38:20;2.93;;;1.23;;
26337;SDS011;14050;50.950;4.460;2023-06-04T12:43:20;2.75;;;1.13;;
26337;SDS011;14050;50.950;4.460;2023-06-04T12:48:21;2.08;;;1.27;;
26337;SDS011;14050;50.950;4.460;2023-06-04T12:53:22;5.38;;;1.50;;
26337;SDS011;14050;50.950;4.460;2023-06-04T12:58:22;5.77;;;1.40;;
26337;SDS011;14050;50.950;4.460;2023-06-04T13:03:22;2.97;;;1.30;;
26337;SDS011;14050;50.950;4.460;2023-06-04T13:08:23;3.78;;;1.30;;
26337;SDS011;14050;50.950;4.460;2023-06-04T13:13:23;8.95;;;1.67;;
26337;SDS011;14050;50.950;4.460;2023-06-04T13:18:24;4.27;;;1.10;;
26337;SDS011;14050;50.950;4.460;2023-06-04T13:23:24;4.38;;;1.42;;
26337;SDS011;14050;50.950;4.460;2023-06-04T13:28:24;3.97;;;1.40;;
26337;SDS011;14050;50.950;4.460;2023-06-04T13:33:25;5.60;;;1.03;;
26337;SDS011;14050;50.950;4.460;2023-06-04T13:38:26;8.13;;;1.40;;
26337;SDS011;14050;50.950;4.460;2023-06-04T13:43:27;1.80;;;1.17;;
26337;SDS011;14050;50.950;4.460;2023-06-04T13:48:27;3.77;;;1.57;;
26337;SDS011;14050;50.950;4.460;2023-06-04T13:53:28;5.93;;;1.20;;
26337;SDS011;14050;50.950;4.460;2023-06-04T13:58:28;2.25;;;1.13;;
26337;SDS011;14050;50.950;4.460;2023-06-04T14:03:28;2.78;;;1.27;;
26337;SDS011;14050;50.950;4.460;2023-06-04T14:08:29;8.00;;;1.55;;
26337;SDS011;14050;50.950;4.460;2023-06-04T14:13:29;3.30;;;1.23;;
26337;SDS011;14050;50.950;4.460;2023-06-04T14:18:29;1.90;;;1.30;;
26337;SDS011;14050;50.950;4.460;2023-06-04T14:23:29;4.30;;;1.20;;
26337;SDS011;14050;50.950;4.460;2023-06-04T14:28:30;5.60;;;1.48;;
26337;SDS011;14050;50.950;4.460;2023-06-04T14:33:30;2.15;;;1.23;;
26337;SDS011;14050;50.950;4.460;2023-06-04T14:38:31;3.45;;;1.30;;
26337;SDS011;14050;50.950;4.460;2023-06-04T14:43:31;3.20;;;1.27;;
26337;SDS011;14050;50.950;4.460;2023-06-04T14:48:31;3.28;;;1.20;;
26337;SDS011;14050;50.950;4.460;2023-06-04T14:53:31;6.30;;;1.37;;
26337;SDS011;14050;50.950;4.460;2023-06-04T14:58:32;5.68;;;1.00;;
26337;SDS011;14050;50.950;4.460;2023-06-04T15:03:32;1.85;;;1.30;;
26337;SDS011;14050;50.950;4.460;2023-06-04T15:08:33;3.35;;;1.42;;
26337;SDS011;14050;50.950;4.460;2023-06-04T15:13:34;2.40;;;1.20;;
26337;SDS011;14050;50.950;4.460;2023-06-04T15:18:34;5.68;;;1.17;;
26337;SDS011;14050;50.950;4.460;2023-06-04T15:23:34;4.15;;;1.50;;
26337;SDS011;14050;50.950;4.460;2023-06-04T15:28:35;3.80;;;1.60;;
26337;SDS011;14050;50.950;4.460;2023-06-04T15:33:35;2.58;;;1.30;;
26337;SDS011;14050;50.950;4.460;2023-06-04T15:38:35;4.53;;;1.50;;
26337;SDS011;14050;50.950;4.460;2023-06-04T15:43:35;7.38;;;1.30;;
26337;SDS011;14050;50.950;4.460;2023-06-04T15:48:36;16.08;;;1.20;;
26337;SDS011;14050;50.950;4.460;2023-06-04T15:53:37;5.70;;;1.30;;
26337;SDS011;14050;50.950;4.460;2023-06-04T15:58:38;1.95;;;1.05;;
26337;SDS011;14050;50.950;4.460;2023-06-04T16:03:39;5.03;;;1.30;;
26337;SDS011;14050;50.950;4.460;2023-06-04T16:08:40;2.65;;;1.20;;
26337;SDS011;14050;50.950;4.460;2023-06-04T16:13:43;5.97;;;1.50;;
26337;SDS011;14050;50.950;4.460;2023-06-04T16:18:46;6.27;;;1.30;;
26337;SDS011;14050;50.950;4.460;2023-06-04T16:23:46;6.55;;;1.50;;
26337;SDS011;14050;50.950;4.460;2023-06-04T16:28:47;1.92;;;1.33;;
26337;SDS011;14050;50.950;4.460;2023-06-04T16:33:47;5.80;;;2.23;;
26337;SDS011;14050;50.950;4.460;2023-06-04T16:38:47;2.58;;;1.50;;
26337;SDS011;14050;50.950;4.460;2023-06-04T16:43:48;6.97;;;1.52;;
26337;SDS011;14050;50.950;4.460;2023-06-04T16:48:48;3.25;;;1.27;;
26337;SDS011;14050;50.950;4.460;2023-06-04T16:53:48;6.15;;;1.70;;
26337;SDS011;14050;50.950;4.460;2023-06-04T16:58:49;3.70;;;1.23;;
26337;SDS011;14050;50.950;4.460;2023-06-04T17:03:49;2.07;;;1.23;;
26337;SDS011;14050;50.950;4.460;2023-06-04T17:08:49;5.78;;;1.30;;
26337;SDS011;14050;50.950;4.460;2023-06-04T17:13:50;10.03;;;1.37;;
26337;SDS011;14050;50.950;4.460;2023-06-04T17:18:50;4.25;;;1.30;;
26337;SDS011;14050;50.950;4.460;2023-06-04T17:23:50;3.63;;;1.40;;
26337;SDS011;14050;50.950;4.460;2023-06-04T17:28:51;4.00;;;1.50;;
26337;SDS011;14050;50.950;4.460;2023-06-04T17:33:51;17.42;;;1.70;;
26337;SDS011;14050;50.950;4.460;2023-06-04T17:38:51;7.27;;;1.80;;
26337;SDS011;14050;50.950;4.460;2023-06-04T17:43:51;6.38;;;1.50;;
26337;SDS011;14050;50.950;4.460;2023-06-04T17:48:52;6.15;;;1.55;;
26337;SDS011;14050;50.950;4.460;2023-06-04T17:53:52;4.45;;;1.27;;
26337;SDS011;14050;50.950;4.460;2023-06-04T17:58:52;3.43;;;1.57;;
26337;SDS011;14050;50.950;4.460;2023-06-04T18:03:53;6.57;;;1.60;;
26337;SDS011;14050;50.950;4.460;2023-06-04T18:08:53;4.40;;;1.67;;
26337;SDS011;14050;50.950;4.460;2023-06-04T18:13:53;3.77;;;1.50;;
26337;SDS011;14050;50.950;4.460;2023-06-04T18:18:54;8.90;;;1.70;;
26337;SDS011;14050;50.950;4.460;2023-06-04T18:23:54;4.20;;;1.40;;
26337;SDS011;14050;50.950;4.460;2023-06-04T18:28:56;4.32;;;1.55;;
26337;SDS011;14050;50.950;4.460;2023-06-04T18:33:56;4.88;;;1.52;;
26337;SDS011;14050;50.950;4.460;2023-06-04T18:39:00;2.45;;;1.50;;
26337;SDS011;14050;50.950;4.460;2023-06-04T18:44:00;2.53;;;1.37;;
26337;SDS011;14050;50.950;4.460;2023-06-04T18:49:01;10.73;;;1.77;;
26337;SDS011;14050;50.950;4.460;2023-06-04T18:54:01;10.90;;;1.50;;
26337;SDS011;14050;50.950;4.460;2023-06-04T18:59:02;6.53;;;1.92;;
26337;SDS011;14050;50.950;4.460;2023-06-04T19:04:02;6.18;;;1.60;;
26337;SDS011;14050;50.950;4.460;2023-06-04T19:09:02;7.83;;;1.63;;
26337;SDS011;14050;50.950;4.460;2023-06-04T19:14:03;11.23;;;2.00;;
26337;SDS011;14050;50.950;4.460;2023-06-04T19:19:03;10.23;;;2.00;;
26337;SDS011;14050;50.950;4.460;2023-06-04T19:24:07;8.13;;;1.75;;
26337;SDS011;14050;50.950;4.460;2023-06-04T19:29:08;8.10;;;1.70;;
26337;SDS011;14050;50.950;4.460;2023-06-04T19:34:08;5.47;;;1.73;;
26337;SDS011;14050;50.950;4.460;2023-06-04T19:39:08;6.43;;;1.95;;
26337;SDS011;14050;50.950;4.460;2023-06-04T19:44:10;8.98;;;1.92;;
26337;SDS011;14050;50.950;4.460;2023-06-04T19:49:10;5.53;;;1.83;;
26337;SDS011;14050;50.950;4.460;2023-06-04T19:54:11;6.23;;;1.67;;
26337;SDS011;14050;50.950;4.460;2023-06-04T19:59:11;10.38;;;1.90;;
26337;SDS011;14050;50.950;4.460;2023-06-04T20:04:11;5.78;;;2.00;;
26337;SDS011;14050;50.950;4.460;2023-06-04T20:09:12;6.78;;;1.70;;
26337;SDS011;14050;50.950;4.460;2023-06-04T20:14:13;7.05;;;2.10;;
26337;SDS011;14050;50.950;4.460;2023-06-04T20:19:14;8.25;;;1.80;;
26337;SDS011;14050;50.950;4.460;2023-06-04T20:24:16;4.30;;;1.90;;
26337;SDS011;14050;50.950;4.460;2023-06-04T20:29:16;9.60;;;1.80;;
26337;SDS011;14050;50.950;4.460;2023-06-04T20:34:16;3.83;;;2.00;;
26337;SDS011;14050;50.950;4.460;2023-06-04T20:39:17;6.97;;;1.97;;
26337;SDS011;14050;50.950;4.460;2023-06-04T20:44:17;7.43;;;2.13;;
26337;SDS011;14050;50.950;4.460;2023-06-04T20:49:18;8.68;;;2.40;;
26337;SDS011;14050;50.950;4.460;2023-06-04T20:54:19;5.97;;;1.98;;
26337;SDS011;14050;50.950;4.460;2023-06-04T20:59:20;5.95;;;1.92;;
26337;SDS011;14050;50.950;4.460;2023-06-04T21:04:20;5.43;;;2.13;;
26337;SDS011;14050;50.950;4.460;2023-06-04T21:09:21;8.40;;;2.43;;
26337;SDS011;14050;50.950;4.460;2023-06-04T21:14:21;10.05;;;2.25;;
26337;SDS011;14050;50.950;4.460;2023-06-04T21:19:21;8.02;;;2.20;;
26337;SDS011;14050;50.950;4.460;2023-06-04T21:24:23;12.00;;;2.40;;
26337;SDS011;14050;50.950;4.460;2023-06-04T21:29:23;9.07;;;2.70;;
26337;SDS011;14050;50.950;4.460;2023-06-04T21:34:23;11.05;;;2.25;;
26337;SDS011;14050;50.950;4.460;2023-06-04T21:39:24;13.23;;;3.38;;
26337;SDS011;14050;50.950;4.460;2023-06-04T21:44:24;5.25;;;2.63;;
26337;SDS011;14050;50.950;4.460;2023-06-04T21:49:24;8.25;;;2.70;;
26337;SDS011;14050;50.950;4.460;2023-06-04T21:54:25;8.27;;;2.75;;
26337;SDS011;14050;50.950;4.460;2023-06-04T21:59:26;13.52;;;2.78;;
26337;SDS011;14050;50.950;4.460;2023-06-04T22:04:26;7.53;;;2.60;;
26337;SDS011;14050;50.950;4.460;2023-06-04T22:09:27;12.45;;;2.80;;
26337;SDS011;14050;50.950;4.460;2023-06-04T22:14:27;11.10;;;3.00;;
26337;SDS011;14050;50.950;4.460;2023-06-04T22:19:27;7.70;;;2.97;;
26337;SDS011;14050;50.950;4.460;2023-06-04T22:24:27;8.13;;;3.00;;
26337;SDS011;14050;50.950;4.460;2023-06-04T22:29:28;5.55;;;2.97;;
26337;SDS011;14050;50.950;4.460;2023-06-04T22:34:28;7.65;;;2.65;;
26337;SDS011;14050;50.950;4.460;2023-06-04T22:39:28;7.60;;;2.58;;
26337;SDS011;14050;50.950;4.460;2023-06-04T22:44:28;10.57;;;3.17;;
26337;SDS011;14050;50.950;4.460;2023-06-04T22:49:29;7.75;;;3.08;;
26337;SDS011;14050;50.950;4.460;2023-06-04T22:54:29;11.73;;;2.95;;
26337;SDS011;14050;50.950;4.460;2023-06-04T22:59:29;5.90;;;2.60;;
26337;SDS011;14050;50.950;4.460;2023-06-04T23:04:30;6.07;;;2.85;;
26337;SDS011;14050;50.950;4.460;2023-06-04T23:09:30;7.50;;;2.63;;
26337;SDS011;14050;50.950;4.460;2023-06-04T23:14:30;8.10;;;2.97;;
26337;SDS011;14050;50.950;4.460;2023-06-04T23:19:32;6.65;;;2.83;;
26337;SDS011;14050;50.950;4.460;2023-06-04T23:24:33;8.45;;;3.13;;
26337;SDS011;14050;50.950;4.460;2023-06-04T23:29:33;8.88;;;3.33;;
26337;SDS011;14050;50.950;4.460;2023-06-04T23:34:34;9.00;;;2.95;;
26337;SDS011;14050;50.950;4.460;2023-06-04T23:39:34;8.60;;;2.97;;
26337;SDS011;14050;50.950;4.460;2023-06-04T23:44:34;11.43;;;3.20;;
26337;SDS011;14050;50.950;4.460;2023-06-04T23:49:35;5.77;;;2.80;;
26337;SDS011;14050;50.950;4.460;2023-06-04T23:54:35;6.53;;;3.10;;
26337;SDS011;14050;50.950;4.460;2023-06-04T23:59:35;9.18;;;2.75;;
